Other Surface Observations
Issued by NWS Great Falls, MT

Home | Current Version | Previous Version | Graphics & Text | Print | Product List | Glossary On
Versions: 1 2 3 4 5 6 7 8 9 10 11 12 13 14 15 16 17 18 19 20 21 22 23 24 25 26 27 28 29 30 31 32 33 34 35 36 37 38 39 40 41 42 43 44 45 46 47 48 49 50
000
SXUS55 KTFX 102208
OSOTFX
AREA AWOS OBSERVATIONS
NATIONAL WEATHER SERVICE GREAT FALLS MT
0405 PM MDT THU JUL 10 2014

METAR KPWD 102200Z AUTO 33011G18KT 10SM 28/19 A2973 RMK PLENTYWOOD
METAR KPO1 102200Z AUTO 30014G20KT 33/14 A2971 RMK POPLAR
METAR K1S3 102200Z AUTO 25008G14KT 10SM 34/07 A2978 RMK FORSYTH
METAR K79S 102200Z AUTO 23004KT 33/05 A2980 RMK FORT BENTON
METAR KEKS 102200Z AUTO 12008KT 10SM 30/M01 A3004 RMK ENNIS
METAR K38S 102200Z AUTO 02003KT 10SM 30/07 A2995 RMK DEER LODGE
METAR K3U3 102200Z AUTO 10SM 30/00 A2994 RMK ANACONDA
METAR K6S5 102200Z AUTO 35004KT 10SM 32/03 A2986 RMK HAMILTON
METAR KS59 102200Z AUTO 00000KT 10SM 31/05 A2983 RMK LIBBY
METAR K88M 102200Z AUTO 20012G18KT 10SM 32/03 A2980 RMK EUREKA



USA.gov is the U.S. government's official web portal to all federal, state and local government web resources and services.